Time;durP1;ratioP1;P1;durP2;ratioP2;P2;SDS_P1;SDS_P2;PMS_P1;PMS_P2;Temp;Humidity;BMP_temperature;BMP_pressure;BME280_temperature;BME280_humidity;BME280_pressure;Samples;Min_cycle;Max_cycle;Signal;HPM_P1;HPM_P2
2022/07/22 00:01:29;;;;;;;0.00;0.00;;;25.90;62.80;;;;;;4192257;28;20086;-62
2022/07/22 00:03:51;;;;;;;0.20;0.20;;;25.90;62.90;;;;;;4190987;28;20040;-62
2022/07/22 00:06:13;;;;;;;0.08;0.08;;;25.90;62.80;;;;;;4192468;28;20061;-68
2022/07/22 00:08:36;;;;;;;0.00;0.00;;;25.90;62.80;;;;;;4191002;28;20131;-69
2022/07/22 00:10:58;;;;;;;0.00;0.00;;;25.90;62.90;;;;;;4192168;28;20079;-68
2022/07/22 00:13:20;;;;;;;0.00;0.00;;;25.90;63.00;;;;;;4192208;28;20098;-68
2022/07/22 00:15:43;;;;;;;0.00;0.00;;;25.90;63.00;;;;;;4192041;28;20456;-68
2022/07/22 00:18:05;;;;;;;0.00;0.00;;;25.90;63.10;;;;;;4192666;28;20514;-68
2022/07/22 00:20:27;;;;;;;0.00;0.00;;;25.90;63.10;;;;;;4192366;28;20143;-69
2022/07/22 00:22:49;;;;;;;0.40;0.20;;;25.90;63.10;;;;;;4192093;28;20110;-70
2022/07/22 00:25:13;;;;;;;0.00;0.00;;;25.80;63.10;;;;;;4192151;28;20514;-70
2022/07/22 00:27:35;;;;;;;0.25;0.25;;;25.90;63.20;;;;;;4192339;28;20060;-69
2022/07/22 00:29:57;;;;;;;0.00;0.00;;;25.90;63.10;;;;;;4190357;28;20071;-69
2022/07/22 00:32:19;;;;;;;0.00;0.00;;;25.80;63.00;;;;;;4192272;28;20048;-69
2022/07/22 00:34:41;;;;;;;0.00;0.00;;;25.90;63.10;;;;;;4190532;28;20142;-68
2022/07/22 00:37:04;;;;;;;0.00;0.00;;;25.80;62.90;;;;;;4191021;28;20141;-69
2022/07/22 00:39:26;;;;;;;0.10;0.10;;;25.80;62.90;;;;;;4190332;28;20161;-69
2022/07/22 00:41:50;;;;;;;0.00;0.00;;;25.80;63.00;;;;;;4191941;28;20511;-69
2022/07/22 00:44:12;;;;;;;0.13;0.13;;;25.80;62.90;;;;;;4190317;28;20107;-69
2022/07/22 00:46:37;;;;;;;0.00;0.00;;;25.80;63.90;;;;;;4190722;28;20106;-69
2022/07/22 00:49:00;;;;;;;0.00;0.00;;;25.80;62.90;;;;;;4191727;28;20098;-69
2022/07/22 00:51:23;;;;;;;0.00;0.00;;;25.80;63.00;;;;;;4190699;28;20071;-69
2022/07/22 00:53:47;;;;;;;0.00;0.00;;;25.80;63.10;;;;;;4190260;28;20048;-69
2022/07/22 00:56:10;;;;;;;0.20;0.20;;;25.80;63.10;;;;;;4192075;28;20044;-70
2022/07/22 00:58:33;;;;;;;0.00;0.00;;;25.80;63.10;;;;;;4190096;28;20082;-69
2022/07/22 01:00:55;;;;;;;0.00;0.00;;;25.80;63.10;;;;;;4191600;28;20055;-69
2022/07/22 01:03:17;;;;;;;0.00;0.00;;;25.80;63.10;;;;;;4192243;28;20051;-69
2022/07/22 01:05:39;;;;;;;0.00;0.00;;;25.80;64.10;;;;;;4191865;28;20767;-70
2022/07/22 01:08:05;;;;;;;0.25;0.25;;;25.80;63.30;;;;;;4191973;28;20127;-70
2022/07/22 01:10:27;;;;;;;0.00;0.00;;;25.70;64.30;;;;;;4190242;28;20078;-69
2022/07/22 01:12:49;;;;;;;0.00;0.00;;;25.80;63.40;;;;;;4192246;28;20044;-69
2022/07/22 01:15:13;;;;;;;0.00;0.00;;;25.80;63.40;;;;;;4174795;28;20051;-69
2022/07/22 01:17:35;;;;;;;0.00;0.00;;;25.80;63.50;;;;;;4175386;28;20051;-69
2022/07/22 01:20:02;;;;;;;0.00;0.00;;;25.80;63.70;;;;;;4187918;28;20521;-69
2022/07/22 01:22:24;;;;;;;0.00;0.00;;;25.80;63.50;;;;;;4190484;28;20055;-70
2022/07/22 01:24:51;;;;;;;0.00;0.00;;;25.80;63.50;;;;;;4190100;28;20388;-69
2022/07/22 01:27:13;;;;;;;0.00;0.00;;;25.80;63.50;;;;;;4191850;28;20055;-69
2022/07/22 01:29:35;;;;;;;0.00;0.00;;;25.70;63.30;;;;;;4178093;28;20163;-69
2022/07/22 01:31:57;;;;;;;0.00;0.00;;;25.80;63.40;;;;;;4177254;28;20055;-69
2022/07/22 01:34:20;;;;;;;0.00;0.00;;;25.70;63.40;;;;;;4176630;28;20048;-68
2022/07/22 01:36:43;;;;;;;0.00;0.00;;;25.70;63.40;;;;;;4185227;28;20055;-69
2022/07/22 01:39:05;;;;;;;0.00;0.00;;;25.70;63.20;;;;;;4194697;28;20059;-69
2022/07/22 01:41:27;;;;;;;0.00;0.00;;;25.70;64.10;;;;;;4193417;28;20051;-68
2022/07/22 01:43:49;;;;;;;0.00;0.00;;;25.70;63.10;;;;;;4194264;28;20064;-69
2022/07/22 01:46:11;;;;;;;0.00;0.00;;;25.70;64.00;;;;;;4193010;28;20102;-68
2022/07/22 01:48:35;;;;;;;0.00;0.00;;;25.70;62.80;;;;;;4193204;28;20056;-69
2022/07/22 01:50:57;;;;;;;0.00;0.00;;;25.70;62.80;;;;;;4192823;28;20438;-62
2022/07/22 01:53:21;;;;;;;0.00;0.00;;;25.70;62.90;;;;;;4193377;28;20044;-62
2022/07/22 01:55:43;;;;;;;0.00;0.00;;;25.60;62.80;;;;;;4193922;28;20131;-62
2022/07/22 01:58:06;;;;;;;0.40;0.40;;;25.60;62.80;;;;;;4192441;28;20541;-62
2022/07/22 02:00:29;;;;;;;0.80;0.80;;;25.60;62.80;;;;;;4192744;28;20482;-63
2022/07/22 02:02:54;;;;;;;0.00;0.00;;;25.60;62.70;;;;;;4193020;28;20040;-69
2022/07/22 02:05:16;;;;;;;0.00;0.00;;;25.60;62.70;;;;;;4192883;28;20144;-68
2022/07/22 02:07:38;;;;;;;0.00;0.00;;;25.60;62.70;;;;;;4192988;28;20565;-69
2022/07/22 02:10:02;;;;;;;0.00;0.00;;;25.60;62.70;;;;;;4192661;28;20435;-68
2022/07/22 02:12:24;;;;;;;0.00;0.00;;;25.60;62.70;;;;;;4193012;28;20067;-69
2022/07/22 02:14:47;;;;;;;0.00;0.00;;;25.60;62.70;;;;;;4176187;28;20099;-69
2022/07/22 02:17:09;;;;;;;0.00;0.00;;;25.60;62.60;;;;;;4176169;28;20091;-69
2022/07/22 02:19:32;;;;;;;0.43;0.43;;;25.60;62.50;;;;;;4176482;28;20052;-69
2022/07/22 02:21:55;;;;;;;0.00;0.00;;;25.60;62.70;;;;;;4176267;28;20144;-69
2022/07/22 02:24:18;;;;;;;0.03;0.03;;;25.60;62.70;;;;;;4161853;28;20463;-68
2022/07/22 02:26:41;;;;;;;0.00;0.00;;;25.60;62.70;;;;;;4176279;28;20047;-69
2022/07/22 02:29:07;;;;;;;0.00;0.00;;;25.60;62.60;;;;;;4189146;28;20045;-69
2022/07/22 02:31:30;;;;;;;0.00;0.00;;;25.60;62.80;;;;;;4192399;28;20200;-68
2022/07/22 02:33:52;;;;;;;0.65;0.65;;;25.60;62.80;;;;;;4192525;28;20072;-68
2022/07/22 02:36:15;;;;;;;0.00;0.00;;;25.50;63.60;;;;;;4192274;28;20041;-69
2022/07/22 02:38:38;;;;;;;0.43;0.28;;;25.50;62.80;;;;;;4177533;28;20407;-68
2022/07/22 02:41:00;;;;;;;0.00;0.00;;;25.50;62.60;;;;;;4192327;28;20056;-69
2022/07/22 02:43:23;;;;;;;0.00;0.00;;;25.50;62.50;;;;;;4177582;28;20095;-68
2022/07/22 02:45:46;;;;;;;0.00;0.00;;;25.50;62.50;;;;;;4192436;28;20048;-69
2022/07/22 02:48:09;;;;;;;0.00;0.00;;;25.50;62.50;;;;;;4191976;28;20929;-68
2022/07/22 02:50:32;;;;;;;0.10;0.10;;;25.50;62.30;;;;;;4192151;28;20713;-68
2022/07/22 02:52:55;;;;;;;0.00;0.00;;;25.50;62.40;;;;;;4177972;28;20099;-69
2022/07/22 02:55:21;;;;;;;0.00;0.00;;;25.50;62.40;;;;;;4178224;28;20045;-70
2022/07/22 02:57:45;;;;;;;0.00;0.00;;;25.50;62.50;;;;;;4191472;28;20060;-69
2022/07/22 03:00:11;;;;;;;0.50;0.50;;;25.50;62.40;;;;;;4192301;28;20070;-69
2022/07/22 03:02:33;;;;;;;0.10;0.10;;;25.50;62.40;;;;;;4193305;28;20118;-71
2022/07/22 03:04:55;;;;;;;0.00;0.00;;;25.40;62.30;;;;;;4193810;28;20044;-70
2022/07/22 03:07:17;;;;;;;0.00;0.00;;;25.40;63.20;;;;;;4192141;28;20059;-70
2022/07/22 03:09:40;;;;;;;0.05;0.05;;;25.40;62.30;;;;;;4192028;28;20449;-71
2022/07/22 03:12:02;;;;;;;0.00;0.00;;;25.40;62.30;;;;;;4191561;28;20490;-70
2022/07/22 03:14:24;;;;;;;0.00;0.00;;;25.40;62.30;;;;;;4191328;28;20157;-70
2022/07/22 03:16:50;;;;;;;0.00;0.00;;;25.40;62.40;;;;;;4191699;28;20056;-70
2022/07/22 03:19:12;;;;;;;0.30;0.30;;;25.40;62.30;;;;;;4191587;28;20137;-69
2022/07/22 03:21:37;;;;;;;0.00;0.00;;;25.40;62.30;;;;;;4177491;28;20067;-71
2022/07/22 03:23:59;;;;;;;0.13;0.13;;;25.40;62.30;;;;;;4191864;28;20544;-70
2022/07/22 03:26:21;;;;;;;0.00;0.00;;;25.40;62.30;;;;;;4191406;28;20047;-69
2022/07/22 03:28:43;;;;;;;0.63;0.52;;;25.40;62.30;;;;;;4192531;28;20383;-69
2022/07/22 03:31:05;;;;;;;0.00;0.00;;;25.40;62.30;;;;;;4191497;28;20079;-68
2022/07/22 03:33:29;;;;;;;0.00;0.00;;;25.40;62.30;;;;;;4193108;28;20153;-68
2022/07/22 03:35:51;;;;;;;0.00;0.00;;;25.40;62.50;;;;;;4191291;28;20052;-69
2022/07/22 03:38:13;;;;;;;0.00;0.00;;;25.40;62.70;;;;;;4191341;28;20048;-69
2022/07/22 03:40:35;;;;;;;0.10;0.10;;;25.40;62.60;;;;;;4188028;28;20059;-68
2022/07/22 03:42:58;;;;;;;0.85;0.85;;;25.40;62.40;;;;;;4179427;28;20483;-69
2022/07/22 03:45:20;;;;;;;0.00;0.00;;;25.40;62.30;;;;;;4189549;28;20067;-68
2022/07/22 03:47:43;;;;;;;0.00;0.00;;;25.40;62.20;;;;;;4177531;28;20129;-69
2022/07/22 03:50:08;;;;;;;0.00;0.00;;;25.40;62.20;;;;;;4173782;28;20055;-68
2022/07/22 03:52:30;;;;;;;0.00;0.00;;;25.40;62.30;;;;;;4160956;28;20174;-68
2022/07/22 03:54:56;;;;;;;0.00;0.00;;;25.40;62.30;;;;;;4184880;28;20066;-68
2022/07/22 03:57:19;;;;;;;0.00;0.00;;;25.40;62.20;;;;;;4190746;28;20102;-69
2022/07/22 03:59:45;;;;;;;0.00;0.00;;;25.40;62.30;;;;;;4191139;28;20048;-69
2022/07/22 04:02:07;;;;;;;0.00;0.00;;;25.40;62.20;;;;;;4191193;28;20082;-69
2022/07/22 04:04:30;;;;;;;0.25;0.20;;;25.40;62.30;;;;;;4190653;28;20052;-69
2022/07/22 04:06:54;;;;;;;0.00;0.00;;;25.40;62.30;;;;;;4191068;28;20055;-69
2022/07/22 04:09:23;;;;;;;0.00;0.00;;;25.40;62.20;;;;;;4190348;28;20056;-69
2022/07/22 04:11:45;;;;;;;0.00;0.00;;;25.40;62.20;;;;;;4192071;28;20056;-69
2022/07/22 04:14:07;;;;;;;0.00;0.00;;;25.40;62.20;;;;;;4185895;28;20060;-69
2022/07/22 04:16:30;;;;;;;0.10;0.10;;;25.30;62.10;;;;;;4175635;28;20585;-69
2022/07/22 04:19:01;;;;;;;0.00;0.00;;;25.30;62.10;;;;;;4174378;28;20048;-69
2022/07/22 04:21:43;;;;;;;0.00;0.00;;;25.30;62.10;;;;;;4174156;28;20091;-69
2022/07/22 04:24:08;;;;;;;0.00;0.00;;;25.30;62.00;;;;;;4181751;28;20131;-69
2022/07/22 04:26:31;;;;;;;0.00;0.00;;;25.30;62.00;;;;;;4190623;28;20048;-68
2022/07/22 04:28:53;;;;;;;0.05;0.05;;;25.30;61.90;;;;;;4190420;28;20055;-68
2022/07/22 04:31:16;;;;;;;0.00;0.00;;;25.30;61.90;;;;;;4190257;28;20059;-69
2022/07/22 04:33:39;;;;;;;0.00;0.00;;;25.30;61.80;;;;;;4190205;28;20475;-69
2022/07/22 04:36:01;;;;;;;0.00;0.00;;;25.30;61.80;;;;;;4190089;28;20119;-69
2022/07/22 04:38:23;;;;;;;0.82;0.80;;;25.30;61.70;;;;;;4190078;28;20067;-68
2022/07/22 04:40:53;;;;;;;0.00;0.00;;;25.30;61.70;;;;;;4191282;28;20047;-69
2022/07/22 04:43:17;;;;;;;0.00;0.00;;;25.30;61.60;;;;;;4189896;28;20098;-69
2022/07/22 04:45:40;;;;;;;0.00;0.00;;;25.30;61.60;;;;;;4190132;28;20220;-71
2022/07/22 04:48:02;;;;;;;0.00;0.00;;;25.30;61.60;;;;;;4191179;28;20048;-69
2022/07/22 04:50:24;;;;;;;0.00;0.00;;;25.30;61.50;;;;;;4188522;28;20056;-69
2022/07/22 04:52:54;;;;;;;0.00;0.00;;;25.30;61.50;;;;;;4190166;28;20048;-69
2022/07/22 04:55:16;;;;;;;0.90;0.90;;;25.30;61.40;;;;;;4182596;28;20053;-69
2022/07/22 04:57:39;;;;;;;0.15;0.15;;;25.20;61.30;;;;;;4173279;28;20569;-67
2022/07/22 05:00:03;;;;;;;0.55;0.55;;;25.20;61.30;;;;;;4186075;28;20130;-67
2022/07/22 05:02:31;;;;;;;0.10;0.10;;;25.20;61.30;;;;;;4190519;28;20052;-68
2022/07/22 05:04:53;;;;;;;0.00;0.00;;;25.20;61.20;;;;;;4193568;28;20087;-67
2022/07/22 05:07:21;;;;;;;0.00;0.00;;;25.20;61.20;;;;;;4191679;28;20087;-67
2022/07/22 05:09:43;;;;;;;0.00;0.00;;;25.20;61.10;;;;;;4192714;28;20059;-67
2022/07/22 05:12:08;;;;;;;0.00;0.00;;;25.20;61.00;;;;;;4192697;28;20068;-67
2022/07/22 05:14:31;;;;;;;0.00;0.00;;;25.20;60.90;;;;;;4193746;28;20103;-67
2022/07/22 05:16:53;;;;;;;0.00;0.00;;;25.20;60.90;;;;;;4192861;28;20465;-67
2022/07/22 05:19:15;;;;;;;0.00;0.00;;;25.20;60.70;;;;;;4194756;28;20044;-67
2022/07/22 05:21:38;;;;;;;0.00;0.00;;;25.20;60.70;;;;;;4192959;28;20047;-68
2022/07/22 05:24:01;;;;;;;0.00;0.00;;;25.10;60.60;;;;;;4192759;28;20051;-68
2022/07/22 05:26:25;;;;;;;0.00;0.00;;;25.10;60.40;;;;;;4186473;28;20059;-67
2022/07/22 05:28:47;;;;;;;0.00;0.00;;;25.10;60.40;;;;;;4192766;28;20121;-64
2022/07/22 05:31:10;;;;;;;0.00;0.00;;;25.10;60.30;;;;;;4194451;28;20487;-65
2022/07/22 05:33:33;;;;;;;0.00;0.00;;;25.10;60.40;;;;;;4193267;28;20503;-65
2022/07/22 05:35:55;;;;;;;0.00;0.00;;;25.10;60.30;;;;;;4194617;28;20052;-65
2022/07/22 05:38:20;;;;;;;0.10;0.10;;;25.10;60.30;;;;;;4193559;28;20506;-64
2022/07/22 05:40:42;;;;;;;0.00;0.00;;;25.10;60.30;;;;;;4194340;28;20126;-65
2022/07/22 05:43:05;;;;;;;0.00;0.00;;;25.00;60.10;;;;;;4179096;28;20072;-64
2022/07/22 05:45:27;;;;;;;0.00;0.00;;;25.00;60.00;;;;;;4193302;28;20052;-64
2022/07/22 05:47:51;;;;;;;0.00;0.00;;;25.00;60.70;;;;;;4192962;28;20052;-65
2022/07/22 05:50:13;;;;;;;0.00;0.00;;;25.00;59.80;;;;;;4192913;28;20052;-65
2022/07/22 05:52:38;;;;;;;0.00;0.00;;;25.00;59.80;;;;;;4193010;28;20134;-64
2022/07/22 05:55:00;;;;;;;0.00;0.00;;;25.00;59.60;;;;;;4194206;28;20418;-65
2022/07/22 05:57:23;;;;;;;0.00;0.00;;;25.00;59.50;;;;;;4192753;28;20094;-64
2022/07/22 05:59:45;;;;;;;0.00;0.00;;;25.00;59.50;;;;;;4185858;28;20071;-65
2022/07/22 06:02:09;;;;;;;0.00;0.00;;;25.00;59.50;;;;;;4193268;28;20052;-64
2022/07/22 06:04:37;;;;;;;0.13;0.13;;;25.00;59.30;;;;;;4192343;28;20059;-64
2022/07/22 06:07:00;;;;;;;0.00;0.00;;;25.00;59.30;;;;;;4192911;28;20839;-65
2022/07/22 06:09:22;;;;;;;0.00;0.00;;;25.00;59.30;;;;;;4191725;28;20044;-64
2022/07/22 06:11:44;;;;;;;0.00;0.00;;;25.00;59.30;;;;;;4192704;28;20110;-64
2022/07/22 06:14:06;;;;;;;0.00;0.00;;;24.90;58.90;;;;;;4193779;28;20099;-65
2022/07/22 06:16:28;;;;;;;0.00;0.00;;;24.90;59.10;;;;;;4192755;28;20049;-64
2022/07/22 06:18:54;;;;;;;0.00;0.00;;;24.90;59.00;;;;;;4192440;28;20119;-63
2022/07/22 06:21:19;;;;;;;0.00;0.00;;;24.90;59.00;;;;;;4192950;28;20044;-63
2022/07/22 06:23:41;;;;;;;0.00;0.00;;;24.90;59.70;;;;;;4190525;28;20048;-63
2022/07/22 06:26:03;;;;;;;0.00;0.00;;;24.90;59.00;;;;;;4191950;28;20412;-63
2022/07/22 06:28:28;;;;;;;0.15;0.15;;;24.90;59.00;;;;;;4177984;28;20112;-63
2022/07/22 06:30:51;;;;;;;0.00;0.00;;;24.90;59.00;;;;;;4192791;28;20128;-63
2022/07/22 06:33:14;;;;;;;0.00;0.00;;;24.90;59.00;;;;;;4175472;28;20056;-63
2022/07/22 06:35:38;;;;;;;0.00;0.00;;;24.80;59.00;;;;;;4176085;28;20143;-63
2022/07/22 06:38:02;;;;;;;0.00;0.00;;;24.90;59.00;;;;;;4176904;28;20752;-63
2022/07/22 06:40:39;;;;;;;0.00;0.00;;;24.90;59.00;;;;;;4184432;28;20484;-63
2022/07/22 06:43:28;;;;;;;0.00;0.00;;;24.90;59.10;;;;;;4192097;28;20122;-63
2022/07/22 06:46:16;;;;;;;0.00;0.00;;;24.90;59.10;;;;;;4175459;28;20195;-63
2022/07/22 06:48:43;;;;;;;0.00;0.00;;;24.90;59.20;;;;;;4175415;28;20546;-63
2022/07/22 06:51:06;;;;;;;0.00;0.00;;;24.90;59.30;;;;;;4175752;28;20515;-62
2022/07/22 06:53:30;;;;;;;0.00;0.00;;;24.90;59.30;;;;;;4175352;28;20110;-63
2022/07/22 06:55:52;;;;;;;0.08;0.08;;;24.90;59.20;;;;;;4181151;28;20156;-62
2022/07/22 06:58:14;;;;;;;0.00;0.00;;;24.90;59.10;;;;;;4192087;28;20055;-63
2022/07/22 07:00:36;;;;;;;0.20;0.20;;;24.90;59.00;;;;;;4192209;28;20055;-62
2022/07/22 07:03:17;;;;;;;0.00;0.00;;;24.90;58.90;;;;;;4193166;28;20478;-62
2022/07/22 07:06:02;;;;;;;0.13;0.13;;;24.90;58.90;;;;;;4191491;28;20530;-62
2022/07/22 07:08:41;;;;;;;0.00;0.00;;;24.90;58.80;;;;;;4191791;28;20083;-62
2022/07/22 07:11:03;;;;;;;0.00;0.00;;;24.90;58.80;;;;;;4176603;28;20052;-62
2022/07/22 07:13:25;;;;;;;0.00;0.00;;;24.90;58.70;;;;;;4191811;28;20060;-60
2022/07/22 07:15:47;;;;;;;0.00;0.00;;;24.80;58.70;;;;;;4191494;28;20064;-60
2022/07/22 07:18:10;;;;;;;0.30;0.30;;;24.90;58.70;;;;;;4191846;28;20059;-61
2022/07/22 07:20:32;;;;;;;0.08;0.08;;;24.90;58.60;;;;;;4175262;28;20049;-60
2022/07/22 07:22:55;;;;;;;0.00;0.00;;;24.90;58.60;;;;;;4175257;28;20093;-60
2022/07/22 07:25:20;;;;;;;0.30;0.30;;;24.90;58.50;;;;;;4183648;28;20059;-60
2022/07/22 07:27:47;;;;;;;0.03;0.03;;;24.90;58.50;;;;;;4191077;28;20486;-60
2022/07/22 07:30:11;;;;;;;0.00;0.00;;;24.90;58.40;;;;;;4191639;28;20700;-60
2022/07/22 07:32:33;;;;;;;1.35;1.00;;;24.90;58.30;;;;;;4191423;28;20055;-60
2022/07/22 07:34:56;;;;;;;0.00;0.00;;;24.90;58.30;;;;;;4191654;28;20040;-60
2022/07/22 07:37:18;;;;;;;0.00;0.00;;;24.90;58.20;;;;;;4192485;28;20040;-61
2022/07/22 07:39:40;;;;;;;0.52;0.52;;;24.90;58.20;;;;;;4191318;28;20129;-59
2022/07/22 07:42:04;;;;;;;0.00;0.00;;;24.90;58.10;;;;;;4191202;28;20065;-60
2022/07/22 07:44:28;;;;;;;0.10;0.10;;;24.90;57.80;;;;;;4191571;28;20145;-59
2022/07/22 07:46:50;;;;;;;0.90;0.70;;;24.90;57.70;;;;;;4191049;28;20086;-60
2022/07/22 07:49:12;;;;;;;0.00;0.00;;;24.90;57.20;;;;;;4177542;28;20032;-59
2022/07/22 07:51:34;;;;;;;0.00;0.00;;;24.90;57.10;;;;;;4191293;28;20105;-60
2022/07/22 07:53:56;;;;;;;0.10;0.10;;;24.90;57.10;;;;;;4191184;28;20109;-61
2022/07/22 07:56:18;;;;;;;0.00;0.00;;;24.90;57.10;;;;;;4190526;28;20048;-60
2022/07/22 07:58:42;;;;;;;0.00;0.00;;;24.90;57.40;;;;;;4190788;28;20062;-60
2022/07/22 08:01:22;;;;;;;;;;;24.90;56.60;;;;;;4191561;28;20161;-59
2022/07/22 08:04:02;;;;;;;2.30;1.65;;;24.90;56.40;;;;;;4189115;28;20015;-60
2022/07/22 08:06:44;;;;;;;2.00;1.00;;;24.80;56.50;;;;;;4185070;28;20080;-59
2022/07/22 08:09:06;;;;;;;0.00;0.00;;;24.80;56.50;;;;;;4190333;28;20048;-59
2022/07/22 08:11:32;;;;;;;0.00;0.00;;;24.80;56.60;;;;;;4190919;28;20052;-59
2022/07/22 08:14:21;;;;;;;0.00;0.00;;;24.80;55.90;;;;;;4188762;28;20071;-60
2022/07/22 08:17:00;;;;;;;0.00;0.00;;;24.80;56.30;;;;;;4190592;28;20052;-60
2022/07/22 08:19:23;;;;;;;0.38;0.38;;;24.80;56.60;;;;;;4190394;28;20048;-60
2022/07/22 08:21:45;;;;;;;0.00;0.00;;;24.80;56.40;;;;;;4187136;28;20153;-59
2022/07/22 08:24:15;;;;;;;1.05;1.02;;;24.80;56.00;;;;;;4190393;28;20057;-60
2022/07/22 08:26:38;;;;;;;0.00;0.00;;;24.80;56.20;;;;;;4190647;28;20052;-60
2022/07/22 08:29:00;;;;;;;0.00;0.00;;;24.80;55.40;;;;;;4187975;28;20048;-60
2022/07/22 08:31:24;;;;;;;0.00;0.00;;;24.80;55.30;;;;;;4187955;28;20052;-60
2022/07/22 08:33:47;;;;;;;0.00;0.00;;;24.80;56.00;;;;;;4174459;28;20055;-59
2022/07/22 08:36:09;;;;;;;0.00;0.00;;;24.80;56.00;;;;;;4175397;28;20118;-59
2022/07/22 08:38:32;;;;;;;0.00;0.00;;;24.80;56.10;;;;;;4190624;28;20097;-60
2022/07/22 08:40:56;;;;;;;0.10;0.10;;;24.80;56.10;;;;;;4190184;28;20051;-60
2022/07/22 08:43:25;;;;;;;0.00;0.00;;;24.80;56.20;;;;;;4190743;28;20052;-61
2022/07/22 08:45:49;;;;;;;0.55;0.55;;;24.80;56.10;;;;;;4190358;28;20053;-60
2022/07/22 08:48:13;;;;;;;0.63;0.63;;;24.80;56.40;;;;;;4175312;28;20056;-60
2022/07/22 08:50:34;;;;;;;0.00;0.00;;;24.80;59.70;;;;;;4175115;28;20056;-60
2022/07/22 08:53:04;;;;;;;0.00;0.00;;;24.80;59.70;;;;;;4173987;28;20408;-60
2022/07/22 08:55:27;;;;;;;0.00;0.00;;;24.90;60.70;;;;;;4174343;28;20059;-60
2022/07/22 08:57:51;;;;;;;0.00;0.00;;;24.90;60.60;;;;;;4173672;28;20131;-60
2022/07/22 09:00:15;;;;;;;0.00;0.00;;;24.80;59.50;;;;;;4182935;28;20052;-60
2022/07/22 09:02:39;;;;;;;0.00;0.00;;;24.80;59.00;;;;;;4190537;28;20076;-60
2022/07/22 09:05:06;;;;;;;0.00;0.00;;;24.90;58.60;;;;;;4190546;28;20048;-60
2022/07/22 09:07:48;;;;;;;0.00;0.00;;;24.90;58.00;;;;;;4190141;28;20391;-60
2022/07/22 09:10:24;;;;;;;0.10;0.10;;;24.90;57.70;;;;;;4190112;28;20056;-60
2022/07/22 09:13:06;;;;;;;;;;;24.90;57.80;;;;;;4192364;28;20502;-60
2022/07/22 09:15:58;;;;;;;0.00;0.00;;;24.90;57.80;;;;;;4190924;28;19924;-60
2022/07/22 09:18:50;;;;;;;0.00;0.00;;;24.90;57.80;;;;;;4191049;28;20052;-59
2022/07/22 09:21:51;;;;;;;0.00;0.00;;;24.80;57.30;;;;;;4202507;28;20048;-60
2022/07/22 09:24:35;;;;;;;0.00;0.00;;;24.80;57.50;;;;;;4206094;28;20102;-60
2022/07/22 09:27:08;;;;;;;0.00;0.00;;;24.80;57.50;;;;;;4189963;28;20526;-60
2022/07/22 09:29:50;;;;;;;0.00;0.00;;;24.80;57.40;;;;;;4191422;28;20409;-60
2022/07/22 09:32:14;;;;;;;0.00;0.00;;;24.80;57.50;;;;;;4190930;28;20045;-60
2022/07/22 09:34:48;;;;;;;0.60;0.60;;;24.80;57.40;;;;;;4189782;28;20052;-60
2022/07/22 09:37:19;;;;;;;0.00;0.00;;;24.80;57.50;;;;;;4189946;28;20068;-60
2022/07/22 09:39:42;;;;;;;0.00;0.00;;;24.80;57.50;;;;;;4190375;28;20047;-60
2022/07/22 09:42:08;;;;;;;0.00;0.00;;;24.80;57.50;;;;;;4189167;28;20052;-60
2022/07/22 09:44:30;;;;;;;0.52;0.52;;;24.80;57.40;;;;;;4190451;28;20047;-60
2022/07/22 09:46:59;;;;;;;0.73;0.73;;;24.80;57.10;;;;;;4190060;28;20561;-60
2022/07/22 09:49:53;;;;;;;0.30;0.30;;;24.80;57.20;;;;;;4167563;28;20049;-60
2022/07/22 09:52:43;;;;;;;0.17;0.17;;;24.80;57.20;;;;;;4172361;28;20064;-60
2022/07/22 09:55:13;;;;;;;0.00;0.00;;;24.80;57.30;;;;;;4176415;28;20048;-60
2022/07/22 09:57:36;;;;;;;0.05;0.05;;;24.80;57.30;;;;;;4176587;28;20234;-60
2022/07/22 09:59:59;;;;;;;0.80;0.68;;;24.80;57.50;;;;;;4181288;28;20052;-60
2022/07/22 10:02:37;;;;;;;0.10;0.10;;;24.80;57.50;;;;;;4194110;28;20574;-60
2022/07/22 10:05:01;;;;;;;1.17;1.17;;;24.80;57.30;;;;;;4192765;28;20091;-60
2022/07/22 10:07:23;;;;;;;0.00;0.00;;;24.80;57.50;;;;;;4192602;28;20053;-60
2022/07/22 10:09:48;;;;;;;0.10;0.10;;;24.80;57.30;;;;;;4192712;28;20114;-66
2022/07/22 10:12:14;;;;;;;0.25;0.25;;;24.80;57.50;;;;;;4192590;28;20304;-67
2022/07/22 10:14:38;;;;;;;0.50;0.50;;;24.80;57.20;;;;;;4192540;28;20122;-67
2022/07/22 10:17:01;;;;;;;0.65;0.57;;;24.80;57.50;;;;;;4190099;28;20488;-67
2022/07/22 10:19:28;;;;;;;0.00;0.00;;;24.80;57.20;;;;;;4190079;28;20056;-67
2022/07/22 10:21:50;;;;;;;0.00;0.00;;;24.80;57.40;;;;;;4189294;28;20509;-67
2022/07/22 10:24:14;;;;;;;0.00;0.00;;;24.80;58.00;;;;;;4191511;28;20064;-67
2022/07/22 10:26:53;;;;;;;0.00;0.00;;;24.80;57.40;;;;;;4189507;28;20600;-67
2022/07/22 10:29:26;;;;;;;0.17;0.15;;;24.80;57.50;;;;;;4189883;28;20048;-67
2022/07/22 10:31:48;;;;;;;7.03;0.80;;;24.80;57.40;;;;;;4190750;28;20050;-67
2022/07/22 10:34:11;;;;;;;0.00;0.00;;;24.80;57.40;;;;;;4191260;28;20450;-67
2022/07/22 10:36:36;;;;;;;0.17;0.17;;;24.80;57.30;;;;;;4189455;28;20078;-67
2022/07/22 10:39:07;;;;;;;1.77;1.38;;;24.80;57.10;;;;;;4188964;28;20117;-67
2022/07/22 10:41:34;;;;;;;2.50;1.63;;;24.80;57.00;;;;;;4191031;28;20079;-67
2022/07/22 10:43:58;;;;;;;0.00;0.00;;;24.80;56.80;;;;;;4190920;28;20148;-68
2022/07/22 10:46:50;;;;;;;0.00;0.00;;;24.80;56.60;;;;;;4191075;28;20055;-67
2022/07/22 10:49:15;;;;;;;0.00;0.00;;;24.80;56.40;;;;;;4190366;28;20066;-67
2022/07/22 10:51:37;;;;;;;0.00;0.00;;;24.80;56.30;;;;;;4189465;28;20135;-66
2022/07/22 10:54:02;;;;;;;0.00;0.00;;;24.80;56.30;;;;;;4190568;28;20067;-67
2022/07/22 10:56:26;;;;;;;0.00;0.00;;;24.80;56.10;;;;;;4191087;28;20102;-67
2022/07/22 10:59:07;;;;;;;0.63;0.52;;;24.80;56.10;;;;;;4190594;28;20492;-67
2022/07/22 11:01:32;;;;;;;0.00;0.00;;;24.80;55.90;;;;;;4189234;28;20080;-67
2022/07/22 11:03:55;;;;;;;0.00;0.00;;;24.80;56.20;;;;;;4190702;28;20037;-67
2022/07/22 11:06:21;;;;;;;0.00;0.00;;;24.80;56.10;;;;;;4190807;28;20051;-68
2022/07/22 11:08:44;;;;;;;0.00;0.00;;;24.80;56.20;;;;;;4190591;28;20046;-68
2022/07/22 11:11:06;;;;;;;0.00;0.00;;;24.80;56.20;;;;;;4190822;28;20066;-70
2022/07/22 11:13:32;;;;;;;0.00;0.00;;;24.80;56.20;;;;;;4189675;28;20048;-68
2022/07/22 11:15:55;;;;;;;0.00;0.00;;;24.80;56.20;;;;;;4190438;28;20094;-68
2022/07/22 11:18:18;;;;;;;0.00;0.00;;;24.70;55.70;;;;;;4190288;28;20048;-68
2022/07/22 11:20:41;;;;;;;0.20;0.20;;;24.70;56.00;;;;;;4190264;28;20064;-68
2022/07/22 11:23:03;;;;;;;0.00;0.00;;;24.80;56.20;;;;;;4189866;28;20488;-68
2022/07/22 11:25:27;;;;;;;0.00;0.00;;;24.80;56.40;;;;;;4191048;28;20133;-68
2022/07/22 11:27:52;;;;;;;0.10;0.10;;;24.70;56.50;;;;;;4189850;28;20910;-67
2022/07/22 11:30:15;;;;;;;0.00;0.00;;;24.80;56.50;;;;;;4190605;28;20425;-67
2022/07/22 11:32:43;;;;;;;0.10;0.10;;;24.80;56.60;;;;;;4190241;28;20048;-67
2022/07/22 11:35:11;;;;;;;0.00;0.00;;;24.80;56.70;;;;;;4188643;28;20398;-67
2022/07/22 11:37:33;;;;;;;0.00;0.00;;;24.80;56.50;;;;;;4189727;28;20086;-67
2022/07/22 11:40:01;;;;;;;0.00;0.00;;;24.80;56.60;;;;;;4190359;28;20090;-68
2022/07/22 11:42:26;;;;;;;0.00;0.00;;;24.80;56.70;;;;;;4189560;28;20120;-67
2022/07/22 11:44:48;;;;;;;0.45;0.45;;;24.80;56.70;;;;;;4190082;28;20079;-67
2022/07/22 11:47:13;;;;;;;0.00;0.00;;;24.80;56.80;;;;;;4188492;28;20102;-67
2022/07/22 11:49:38;;;;;;;0.00;0.00;;;24.80;56.70;;;;;;4189499;28;20411;-67
2022/07/22 11:52:00;;;;;;;0.00;0.00;;;24.90;56.70;;;;;;4189632;28;20055;-67
2022/07/22 11:54:23;;;;;;;0.00;0.00;;;24.90;56.60;;;;;;4189650;28;20133;-67
2022/07/22 11:56:45;;;;;;;0.00;0.00;;;24.90;56.60;;;;;;4190279;28;20055;-67
2022/07/22 11:59:09;;;;;;;0.00;0.00;;;24.90;56.50;;;;;;4189689;28;20106;-67
2022/07/22 12:01:32;;;;;;;0.00;0.00;;;24.90;56.50;;;;;;4189472;28;20064;-67
2022/07/22 12:03:56;;;;;;;0.00;0.00;;;24.90;56.50;;;;;;4189836;28;20086;-67
2022/07/22 12:06:22;;;;;;;0.00;0.00;;;24.90;56.40;;;;;;4187857;28;20507;-68
2022/07/22 12:08:46;;;;;;;0.00;0.00;;;25.00;56.20;;;;;;4189735;28;20051;-68
2022/07/22 12:11:11;;;;;;;0.00;0.00;;;24.90;57.00;;;;;;4189403;28;20383;-67
2022/07/22 12:13:33;;;;;;;0.00;0.00;;;24.90;56.40;;;;;;4189739;28;20464;-67
2022/07/22 12:16:22;;;;;;;0.00;0.00;;;24.90;56.40;;;;;;4189251;28;20058;-67
2022/07/22 12:18:44;;;;;;;0.57;0.57;;;24.90;56.50;;;;;;4189441;28;20407;-67
2022/07/22 12:21:08;;;;;;;0.00;0.00;;;24.90;56.50;;;;;;4189367;28;21095;-67
2022/07/22 12:23:31;;;;;;;0.00;0.00;;;24.90;56.50;;;;;;4189054;28;20064;-68
2022/07/22 12:25:55;;;;;;;0.00;0.00;;;24.90;56.40;;;;;;4189497;28;20102;-68
2022/07/22 12:28:17;;;;;;;0.00;0.00;;;24.90;56.40;;;;;;4189380;28;20048;-68
2022/07/22 12:30:39;;;;;;;0.00;0.00;;;24.90;56.40;;;;;;4189840;28;20478;-68
2022/07/22 12:33:01;;;;;;;0.43;0.43;;;24.80;56.20;;;;;;4189458;28;20060;-67
2022/07/22 12:35:24;;;;;;;0.00;0.00;;;24.80;56.20;;;;;;4189388;28;20140;-67
2022/07/22 12:37:46;;;;;;;0.00;0.00;;;24.80;56.70;;;;;;4189764;28;20127;-68